Time;durP1;ratioP1;P1;durP2;ratioP2;P2;SDS_P1;SDS_P2;PMS_P1;PMS_P2;Temp;Humidity;BMP_temperature;BMP_pressure;BME280_temperature;BME280_humidity;BME280_pressure;Samples;Min_cycle;Max_cycle;Signal;HPM_P1;HPM_P2
2022/11/20 09:03:33;;;;;;;28.00;21.80;;;;;;;;;;5009969;28;98432;-72
2022/11/20 09:06:00;;;;;;;26.50;19.63;;;;;;;;;;5000672;28;99247;-72
2022/11/20 09:08:27;;;;;;;28.02;20.95;;;;;;;;;;4987889;28;100351;-73
2022/11/20 09:10:54;;;;;;;24.35;18.85;;;;;;;;;;4984638;28;99865;-72
2022/11/20 09:13:21;;;;;;;29.48;17.83;;;;;;;;;;4993161;28;99047;-73
2022/11/20 09:15:58;;;;;;;26.88;20.42;;;;;;;;;;4994909;28;99741;-72
2022/11/20 09:18:25;;;;;;;26.25;18.65;;;;;;;;;;4986943;28;99760;-72
2022/11/20 09:20:51;;;;;;;23.73;17.60;;;;;;;;;;4996642;28;100048;-72
2022/11/20 09:23:18;;;;;;;30.40;19.08;;;;;;;;;;4996045;28;98340;-72
2022/11/20 09:25:46;;;;;;;23.58;18.85;;;;;;;;;;4998869;28;99935;-72
2022/11/20 09:28:12;;;;;;;23.67;18.98;;;;;;;;;;5002675;28;98277;-72
2022/11/20 09:30:38;;;;;;;26.15;20.48;;;;;;;;;;4998802;28;99774;-72
2022/11/20 09:33:08;;;;;;;22.60;18.38;;;;;;;;;;4996633;28;100029;-71
2022/11/20 09:35:35;;;;;;;27.50;18.48;;;;;;;;;;5001748;28;98603;-71
2022/11/20 09:38:07;;;;;;;22.80;18.65;;;;;;;;;;4999157;28;100056;-71
2022/11/20 09:40:35;;;;;;;25.40;18.77;;;;;;;;;;4997769;28;100202;-73
2022/11/20 09:43:15;;;;;;;21.98;17.90;;;;;;;;;;5000770;28;98380;-71
2022/11/20 09:45:44;;;;;;;19.13;14.18;;;;;;;;;;5004353;28;99875;-73
2022/11/20 09:48:20;;;;;;;25.67;18.33;;;;;;;;;;5003205;28;98262;-72
2022/11/20 09:50:52;;;;;;;26.38;17.33;;;;;;;;;;5002332;28;99361;-71
2022/11/20 09:53:30;;;;;;;23.58;17.35;;;;;;;;;;5004195;28;100269;-72
2022/11/20 09:55:57;;;;;;;25.25;18.20;;;;;;;;;;5004784;28;98160;-72
2022/11/20 09:58:35;;;;;;;23.63;19.30;;;;;;;;;;5003722;28;99327;-73
2022/11/20 10:01:10;;;;;;;27.25;18.98;;;;;;;;;;5003993;28;102327;-72
2022/11/20 10:03:41;;;;;;;21.58;17.40;;;;;;;;;;5003773;28;98210;-72
2022/11/20 10:06:10;;;;;;;26.90;19.02;;;;;;;;;;5002826;28;98713;-73
2022/11/20 10:08:42;;;;;;;26.63;17.83;;;;;;;;;;5005813;28;99354;-72
2022/11/20 10:11:31;;;;;;;26.67;20.05;;;;;;;;;;4997963;28;100361;-72
2022/11/20 10:14:06;;;;;;;26.13;20.00;;;;;;;;;;4966280;28;99303;-72
2022/11/20 10:16:47;;;;;;;25.13;19.08;;;;;;;;;;4970259;28;98258;-72
2022/11/20 10:19:38;;;;;;;27.88;20.90;;;;;;;;;;4970059;28;99123;-72
2022/11/20 10:22:22;;;;;;;24.90;19.00;;;;;;;;;;4970346;28;99997;-72
2022/11/20 10:24:56;;;;;;;24.83;18.40;;;;;;;;;;4980451;28;98887;-71
2022/11/20 10:27:22;;;;;;;25.88;19.73;;;;;;;;;;4989453;28;98405;-72
2022/11/20 10:29:59;;;;;;;27.38;19.13;;;;;;;;;;4973821;28;100074;-71
2022/11/20 10:32:31;;;;;;;27.35;20.55;;;;;;;;;;4973771;28;98708;-72
2022/11/20 10:35:13;;;;;;;27.40;20.30;;;;;;;;;;4978042;28;100061;-72
2022/11/20 10:37:42;;;;;;;26.42;20.13;;;;;;;;;;4990075;28;98210;-72
2022/11/20 10:40:18;;;;;;;28.10;18.45;;;;;;;;;;4985717;28;99806;-72
2022/11/20 10:42:46;;;;;;;27.27;21.08;;;;;;;;;;4983733;28;99243;-71
2022/11/20 10:45:19;;;;;;;29.02;20.83;;;;;;;;;;4988324;28;99473;-73
2022/11/20 10:47:45;;;;;;;27.42;22.02;;;;;;;;;;4969220;28;98565;-72
2022/11/20 10:50:15;;;;;;;30.95;20.77;;;;;;;;;;4969634;28;99172;-72
2022/11/20 10:52:47;;;;;;;28.13;21.00;;;;;;;;;;4969654;28;98557;-72
2022/11/20 10:55:14;;;;;;;32.38;23.08;;;;;;;;;;4972181;28;99597;-72
2022/11/20 10:57:51;;;;;;;30.15;22.90;;;;;;;;;;4973340;28;98291;-71
2022/11/20 11:00:18;;;;;;;40.70;22.33;;;;;;;;;;4980388;28;99485;-71
2022/11/20 11:02:51;;;;;;;35.53;22.98;;;;;;;;;;4986487;28;101645;-70
2022/11/20 11:05:22;;;;;;;28.42;22.30;;;;;;;;;;4999277;28;98639;-71
2022/11/20 11:07:50;;;;;;;32.85;23.90;;;;;;;;;;5000100;28;99424;-71
2022/11/20 11:10:22;;;;;;;35.67;22.42;;;;;;;;;;5004727;28;99963;-71
2022/11/20 11:12:48;;;;;;;28.15;21.10;;;;;;;;;;5009471;28;98785;-71
2022/11/20 11:15:26;;;;;;;30.58;22.58;;;;;;;;;;5006508;28;99624;-72
2022/11/20 11:17:53;;;;;;;31.20;23.48;;;;;;;;;;5012001;28;98705;-72
2022/11/20 11:20:21;;;;;;;29.58;21.52;;;;;;;;;;4997368;28;99313;-72
2022/11/20 11:22:47;;;;;;;27.40;19.50;;;;;;;;;;5003794;28;100046;-73
2022/11/20 11:25:30;;;;;;;30.65;22.92;;;;;;;;;;4999091;28;98938;-72
2022/11/20 11:28:00;;;;;;;28.98;23.20;;;;;;;;;;5005217;28;98661;-72
2022/11/20 11:30:29;;;;;;;33.45;23.65;;;;;;;;;;4994971;28;99212;-72
2022/11/20 11:33:02;;;;;;;36.83;25.20;;;;;;;;;;4988370;28;98681;-72
2022/11/20 11:35:29;;;;;;;30.90;23.88;;;;;;;;;;5005077;28;98981;-72
2022/11/20 11:38:03;;;;;;;34.80;24.58;;;;;;;;;;5010700;28;99020;-72
2022/11/20 11:40:30;;;;;;;35.25;24.23;;;;;;;;;;5006149;28;99603;-72
2022/11/20 11:42:58;;;;;;;32.28;24.92;;;;;;;;;;5006579;28;100707;-72
2022/11/20 11:45:25;;;;;;;32.28;21.92;;;;;;;;;;5005052;28;98431;-72
2022/11/20 11:47:53;;;;;;;39.00;25.65;;;;;;;;;;5005005;28;98477;-72
2022/11/20 11:50:20;;;;;;;36.78;26.80;;;;;;;;;;5007835;28;100190;-73
2022/11/20 11:52:55;;;;;;;37.42;27.58;;;;;;;;;;5008070;28;98271;-71
2022/11/20 11:55:29;;;;;;;34.75;26.70;;;;;;;;;;4991761;28;99841;-72
2022/11/20 11:58:04;;;;;;;34.97;27.90;;;;;;;;;;5005520;28;100323;-72
2022/11/20 12:00:31;;;;;;;40.33;25.73;;;;;;;;;;5010706;28;98482;-71
2022/11/20 12:03:04;;;;;;;33.95;25.63;;;;;;;;;;5007776;28;99922;-71
2022/11/20 12:05:35;;;;;;;46.40;30.60;;;;;;;;;;5004168;28;98752;-71
2022/11/20 12:08:06;;;;;;;42.00;28.25;;;;;;;;;;5005775;28;99467;-71
2022/11/20 12:10:40;;;;;;;43.45;28.95;;;;;;;;;;5005509;28;99251;-71
2022/11/20 12:13:33;;;;;;;41.92;29.42;;;;;;;;;;5004027;28;100075;-72
2022/11/20 12:16:01;;;;;;;40.78;29.33;;;;;;;;;;5004919;28;99617;-71
2022/11/20 12:18:28;;;;;;;43.45;30.50;;;;;;;;;;5003068;28;100129;-71
2022/11/20 12:21:03;;;;;;;43.65;29.40;;;;;;;;;;5006297;28;98513;-71
2022/11/20 12:23:32;;;;;;;42.60;27.40;;;;;;;;;;5009633;28;98630;-71
2022/11/20 12:26:01;;;;;;;44.97;31.00;;;;;;;;;;5007578;28;98837;-71
2022/11/20 12:28:27;;;;;;;46.67;36.08;;;;;;;;;;5006980;28;99408;-71
2022/11/20 12:30:54;;;;;;;57.05;35.85;;;;;;;;;;5005647;28;100092;-70
2022/11/20 12:33:20;;;;;;;43.75;30.98;;;;;;;;;;5006858;28;98439;-70
2022/11/20 12:36:05;;;;;;;44.35;31.63;;;;;;;;;;5007747;28;99261;-71
2022/11/20 12:38:39;;;;;;;47.78;31.63;;;;;;;;;;5007636;28;100171;-71
2022/11/20 12:47:21;;;;;;;46.10;28.50;;;;;;;;;;5009354;28;100205;-72
2022/11/20 12:49:54;;;;;;;48.67;32.20;;;;;;;;;;5007589;28;98497;-72
2022/11/20 12:52:39;;;;;;;42.33;28.75;;;;;;;;;;5006594;28;99652;-71
2022/11/20 12:55:12;;;;;;;44.45;29.52;;;;;;;;;;5006590;28;98351;-72
2022/11/20 12:57:49;;;;;;;41.85;27.20;;;;;;;;;;5004242;28;99548;-73
2022/11/20 13:00:20;;;;;;;49.63;32.75;;;;;;;;;;4999671;28;100418;-74
2022/11/20 13:03:00;;;;;;;44.65;30.42;;;;;;;;;;5002721;28;98501;-73
2022/11/20 13:05:46;;;;;;;58.13;32.88;;;;;;;;;;4989440;28;98564;-73
2022/11/20 13:08:21;;;;;;;51.03;32.58;;;;;;;;;;5006802;28;100077;-73
2022/11/20 13:10:55;;;;;;;41.80;29.30;;;;;;;;;;5009421;28;98562;-73
2022/11/20 13:13:35;;;;;;;45.70;30.63;;;;;;;;;;5001782;28;99896;-74
2022/11/20 13:16:02;;;;;;;38.10;27.48;;;;;;;;;;4996592;28;98251;-73
2022/11/20 13:18:33;;;;;;;49.45;30.45;;;;;;;;;;5006411;28;98828;-73
2022/11/20 13:20:59;;;;;;;44.10;27.17;;;;;;;;;;4993929;28;100155;-74
2022/11/20 13:23:27;;;;;;;42.33;27.25;;;;;;;;;;4986374;28;98249;-73
2022/11/20 13:26:06;;;;;;;73.47;51.78;;;;;;;;;;4989688;28;99570;-73
2022/11/20 13:28:32;;;;;;;50.25;35.47;;;;;;;;;;4994555;28;100002;-72
2022/11/20 13:30:59;;;;;;;50.83;32.78;;;;;;;;;;5009597;28;98373;-73
2022/11/20 13:33:29;;;;;;;57.20;34.65;;;;;;;;;;5006589;28;99289;-73
2022/11/20 13:36:06;;;;;;;48.15;32.78;;;;;;;;;;5005130;28;98811;-73
2022/11/20 13:39:03;;;;;;;50.22;32.42;;;;;;;;;;5006378;28;99659;-73
2022/11/20 13:41:35;;;;;;;52.88;31.48;;;;;;;;;;4993612;28;100877;-74
2022/11/20 13:44:13;;;;;;;48.63;33.90;;;;;;;;;;5000188;28;98819;-75
2022/11/20 13:46:45;;;;;;;51.15;31.70;;;;;;;;;;4993505;28;98523;-72
2022/11/20 13:49:20;;;;;;;56.37;34.90;;;;;;;;;;5007394;28;100208;-74
2022/11/20 13:51:48;;;;;;;46.45;32.03;;;;;;;;;;5009389;28;98945;-73
2022/11/20 13:54:40;;;;;;;51.45;33.00;;;;;;;;;;5012400;28;98601;-73
2022/11/20 13:57:16;;;;;;;54.13;33.90;;;;;;;;;;5006474;28;98349;-74
2022/11/20 14:00:01;;;;;;;43.03;27.80;;;;;;;;;;5008596;28;98568;-74
2022/11/20 14:02:36;;;;;;;45.10;30.60;;;;;;;;;;5005840;28;98685;-73
2022/11/20 14:05:04;;;;;;;52.28;34.22;;;;;;;;;;5009427;28;98522;-74
2022/11/20 14:07:41;;;;;;;60.15;34.60;;;;;;;;;;5009830;28;99413;-73
2022/11/20 14:10:20;;;;;;;63.00;33.35;;;;;;;;;;5008802;28;100611;-74
2022/11/20 14:12:47;;;;;;;48.72;30.02;;;;;;;;;;5007792;28;98378;-72
2022/11/20 14:15:24;;;;;;;58.83;32.90;;;;;;;;;;5008316;28;99481;-72
2022/11/20 14:17:50;;;;;;;59.75;33.58;;;;;;;;;;5008484;28;99857;-71
2022/11/20 14:20:23;;;;;;;56.80;31.27;;;;;;;;;;5006252;28;98548;-71
2022/11/20 14:22:50;;;;;;;62.85;32.83;;;;;;;;;;5008870;28;100517;-71
2022/11/20 14:25:23;;;;;;;67.35;38.13;;;;;;;;;;5007828;28;98337;-70
2022/11/20 14:27:55;;;;;;;54.20;29.73;;;;;;;;;;5010218;28;99374;-70
2022/11/20 14:30:23;;;;;;;57.55;32.22;;;;;;;;;;5007777;28;99034;-72
2022/11/20 14:32:51;;;;;;;47.10;27.83;;;;;;;;;;5005736;28;98469;-71
2022/11/20 14:35:24;;;;;;;56.03;32.95;;;;;;;;;;5009707;28;99472;-70
2022/11/20 14:37:51;;;;;;;63.00;34.47;;;;;;;;;;5001737;28;99296;-70
2022/11/20 14:40:29;;;;;;;56.35;31.88;;;;;;;;;;4992809;28;98638;-70
2022/11/20 14:42:56;;;;;;;60.90;34.67;;;;;;;;;;5005676;28;99128;-71
2022/11/20 14:45:23;;;;;;;58.33;33.47;;;;;;;;;;5007310;28;98419;-70
2022/11/20 14:47:55;;;;;;;51.45;30.60;;;;;;;;;;5008564;28;99675;-70
2022/11/20 14:50:24;;;;;;;71.68;36.42;;;;;;;;;;5006782;28;100142;-71
2022/11/20 14:52:54;;;;;;;66.28;35.85;;;;;;;;;;5008323;28;98305;-71
2022/11/20 14:55:34;;;;;;;62.40;33.92;;;;;;;;;;5008086;28;98607;-71
2022/11/20 14:58:02;;;;;;;58.00;35.25;;;;;;;;;;5005463;28;99863;-71
2022/11/20 15:00:30;;;;;;;69.88;40.28;;;;;;;;;;5007703;28;98270;-71
2022/11/20 15:02:57;;;;;;;125.72;70.75;;;;;;;;;;5009625;28;98471;-71
2022/11/20 15:05:25;;;;;;;84.28;43.47;;;;;;;;;;5006372;28;98622;-70
2022/11/20 15:08:12;;;;;;;56.05;32.10;;;;;;;;;;5008580;28;99418;-71
2022/11/20 15:10:38;;;;;;;73.40;40.95;;;;;;;;;;5008327;28;99946;-70
2022/11/20 15:13:10;;;;;;;83.70;42.80;;;;;;;;;;5006301;28;98360;-70
2022/11/20 15:15:41;;;;;;;82.82;43.33;;;;;;;;;;5007911;28;99135;-71
2022/11/20 15:18:14;;;;;;;86.07;43.13;;;;;;;;;;5007599;28;99095;-70
2022/11/20 15:20:41;;;;;;;76.45;38.88;;;;;;;;;;5006126;28;98902;-70
2022/11/20 15:23:11;;;;;;;82.18;43.13;;;;;;;;;;5006050;28;99364;-70
2022/11/20 15:25:38;;;;;;;87.07;44.13;;;;;;;;;;5010268;28;99112;-70
2022/11/20 15:28:13;;;;;;;98.43;45.75;;;;;;;;;;5000670;28;99276;-70
2022/11/20 15:30:39;;;;;;;92.28;45.45;;;;;;;;;;5004325;28;100080;-70
2022/11/20 15:33:07;;;;;;;130.35;67.28;;;;;;;;;;4997989;28;98282;-70
2022/11/20 15:35:34;;;;;;;98.22;44.72;;;;;;;;;;5004658;28;98648;-69
2022/11/20 15:38:00;;;;;;;109.60;45.88;;;;;;;;;;5003118;28;99900;-70
2022/11/20 15:40:26;;;;;;;106.88;45.60;;;;;;;;;;4999349;28;99821;-70
2022/11/20 15:43:08;;;;;;;94.25;41.53;;;;;;;;;;5006459;28;99407;-71
2022/11/20 15:45:39;;;;;;;104.18;44.90;;;;;;;;;;5009301;28;100042;-69
2022/11/20 15:48:09;;;;;;;87.43;42.28;;;;;;;;;;5007384;28;98355;-69
2022/11/20 15:50:37;;;;;;;95.80;39.40;;;;;;;;;;5007025;28;99684;-69
2022/11/20 15:53:04;;;;;;;88.28;40.50;;;;;;;;;;5008023;28;98327;-69
2022/11/20 15:55:31;;;;;;;103.05;41.75;;;;;;;;;;5006393;28;98603;-69
2022/11/20 15:57:57;;;;;;;98.22;44.22;;;;;;;;;;5006491;28;99008;-70
2022/11/20 16:00:24;;;;;;;108.53;43.55;;;;;;;;;;5008776;28;98252;-69
2022/11/20 16:02:50;;;;;;;92.60;39.67;;;;;;;;;;5005665;28;99050;-70
2022/11/20 16:05:17;;;;;;;96.32;39.85;;;;;;;;;;5006357;28;98913;-70
2022/11/20 16:07:43;;;;;;;109.75;43.75;;;;;;;;;;5008275;28;98863;-70
2022/11/20 16:10:10;;;;;;;83.45;36.45;;;;;;;;;;5003244;28;99907;-69
2022/11/20 16:18:23;;;;;;;64.22;31.08;;;;;;;;;;4943310;28;100120;-70
2022/11/20 16:20:50;;;;;;;78.55;37.83;;;;;;;;;;4995672;28;98362;-70
2022/11/20 16:23:17;;;;;;;68.88;34.28;;;;;;;;;;5005668;28;99338;-69
2022/11/20 16:25:44;;;;;;;37.40;20.90;;;;;;;;;;5006152;28;100062;-69
2022/11/20 16:28:10;;;;;;;63.70;32.95;;;;;;;;;;5007041;28;98414;-69
2022/11/20 16:30:44;;;;;;;55.65;30.75;;;;;;;;;;5009895;28;99793;-69
2022/11/20 16:33:11;;;;;;;43.13;25.77;;;;;;;;;;5006496;28;98635;-70
2022/11/20 16:35:38;;;;;;;72.60;34.05;;;;;;;;;;5006526;28;98777;-70
2022/11/20 16:38:05;;;;;;;72.05;35.75;;;;;;;;;;5005600;28;99393;-69
2022/11/20 16:40:31;;;;;;;48.38;27.23;;;;;;;;;;5005162;28;98459;-69
2022/11/20 16:43:05;;;;;;;76.82;35.50;;;;;;;;;;5007916;28;99573;-69
2022/11/20 16:45:32;;;;;;;68.72;34.67;;;;;;;;;;5005941;28;99934;-69
2022/11/20 16:47:59;;;;;;;56.15;29.77;;;;;;;;;;5008166;28;98323;-69
2022/11/20 16:50:25;;;;;;;58.65;31.40;;;;;;;;;;5004650;28;99507;-69
2022/11/20 16:52:52;;;;;;;48.78;27.98;;;;;;;;;;4999302;28;99810;-69
2022/11/20 16:55:18;;;;;;;64.10;32.63;;;;;;;;;;4987002;28;98610;-69
2022/11/20 16:57:44;;;;;;;87.07;39.08;;;;;;;;;;5004698;28;99408;-69
2022/11/20 17:00:11;;;;;;;61.75;30.08;;;;;;;;;;5002871;28;99183;-69
2022/11/20 17:02:37;;;;;;;63.25;35.05;;;;;;;;;;5006462;28;100063;-69
2022/11/20 17:05:05;;;;;;;75.80;36.75;;;;;;;;;;4996545;28;99166;-69
2022/11/20 17:07:31;;;;;;;43.08;25.15;;;;;;;;;;5004605;28;98282;-69
2022/11/20 17:09:59;;;;;;;52.83;28.70;;;;;;;;;;5000803;28;99246;-69
2022/11/20 17:12:25;;;;;;;79.55;38.20;;;;;;;;;;5006234;28;99047;-69
2022/11/20 17:14:52;;;;;;;72.88;40.00;;;;;;;;;;5006335;28;98829;-69
2022/11/20 17:17:18;;;;;;;60.22;32.35;;;;;;;;;;4987487;28;100210;-69
2022/11/20 17:19:44;;;;;;;46.20;26.05;;;;;;;;;;4999040;28;99236;-69
2022/11/20 17:22:11;;;;;;;64.65;34.65;;;;;;;;;;4997070;28;98511;-69
2022/11/20 17:24:37;;;;;;;55.15;30.85;;;;;;;;;;5007469;28;99166;-70
2022/11/20 17:27:03;;;;;;;74.53;38.00;;;;;;;;;;5005073;28;98137;-70
2022/11/20 17:29:30;;;;;;;80.43;37.83;;;;;;;;;;5003126;28;99631;-70
2022/11/20 17:31:56;;;;;;;66.28;33.55;;;;;;;;;;5002521;28;100506;-70
2022/11/20 17:34:23;;;;;;;77.32;39.38;;;;;;;;;;4995568;28;99904;-69
2022/11/20 17:36:50;;;;;;;48.25;28.08;;;;;;;;;;5013358;28;99390;-70
2022/11/20 17:39:16;;;;;;;89.97;42.72;;;;;;;;;;5008736;28;98205;-70
2022/11/20 17:41:42;;;;;;;88.35;42.88;;;;;;;;;;5008025;28;99579;-70
2022/11/20 17:44:09;;;;;;;82.15;42.90;;;;;;;;;;5006071;28;98865;-70
2022/11/20 17:46:36;;;;;;;82.35;43.58;;;;;;;;;;5005211;28;98366;-70
2022/11/20 17:49:02;;;;;;;80.40;44.22;;;;;;;;;;5007268;28;98878;-70
2022/11/20 17:51:30;;;;;;;70.82;34.63;;;;;;;;;;5007822;28;99861;-70
2022/11/20 17:53:57;;;;;;;83.07;43.28;;;;;;;;;;5001287;28;99485;-69
2022/11/20 17:59:09;;;;;;;79.63;41.28;;;;;;;;;;5006897;28;98927;-70
2022/11/20 18:01:36;;;;;;;86.45;46.33;;;;;;;;;;4999036;28;99731;-70
2022/11/20 18:04:02;;;;;;;89.15;43.60;;;;;;;;;;5009611;28;100179;-70
2022/11/20 18:06:29;;;;;;;63.70;36.30;;;;;;;;;;5008326;28;99136;-70
2022/11/20 18:08:59;;;;;;;91.43;42.90;;;;;;;;;;5002465;28;99566;-70
2022/11/20 18:11:26;;;;;;;61.75;33.55;;;;;;;;;;5005411;28;100064;-69
2022/11/20 18:16:46;;;;;;;40.15;24.05;;;;;;;;;;5010473;28;98784;-70
2022/11/20 18:19:14;;;;;;;69.68;38.78;;;;;;;;;;5013139;28;99123;-69
2022/11/20 18:21:41;;;;;;;73.35;38.13;;;;;;;;;;5009899;28;99410;-69
2022/11/20 18:24:07;;;;;;;67.75;38.05;;;;;;;;;;5009379;28;99985;-69
2022/11/20 18:26:34;;;;;;;72.28;37.45;;;;;;;;;;5009890;28;98314;-70
2022/11/20 18:29:06;;;;;;;77.15;37.72;;;;;;;;;;4998225;28;99662;-70
2022/11/20 18:31:33;;;;;;;53.20;32.08;;;;;;;;;;4991122;28;100009;-70
2022/11/20 18:33:59;;;;;;;75.00;39.97;;;;;;;;;;5008371;28;98274;-70
2022/11/20 18:36:27;;;;;;;76.55;39.47;;;;;;;;;;5008385;28;99588;-70
2022/11/20 18:38:57;;;;;;;70.28;37.80;;;;;;;;;;5007737;28;99027;-70
2022/11/20 18:47:06;;;;;;;73.97;41.10;;;;;;;;;;5007078;28;98723;-70
2022/11/20 18:49:40;;;;;;;77.65;41.72;;;;;;;;;;5008599;28;99344;-69
2022/11/20 18:52:06;;;;;;;61.83;35.65;;;;;;;;;;5007682;28;100357;-69
2022/11/20 18:54:34;;;;;;;65.15;37.15;;;;;;;;;;5005005;28;98274;-69
2022/11/20 18:57:00;;;;;;;75.57;39.90;;;;;;;;;;5008829;28;99642;-69
2022/11/20 18:59:26;;;;;;;94.25;43.90;;;;;;;;;;5001750;28;102120;-69
2022/11/20 19:01:53;;;;;;;87.47;43.95;;;;;;;;;;5008080;28;98900;-69
2022/11/20 19:04:20;;;;;;;82.20;41.80;;;;;;;;;;5001533;28;99735;-69
2022/11/20 19:06:51;;;;;;;84.90;44.28;;;;;;;;;;4980945;28;98466;-69
2022/11/20 19:09:18;;;;;;;91.40;42.97;;;;;;;;;;5007198;28;98550;-70
2022/11/20 19:11:44;;;;;;;96.03;43.97;;;;;;;;;;5007615;28;99987;-70
2022/11/20 19:14:10;;;;;;;92.97;41.85;;;;;;;;;;5004912;28;98264;-70
2022/11/20 19:16:37;;;;;;;54.05;29.27;;;;;;;;;;5002580;28;99389;-70
2022/11/20 19:19:04;;;;;;;87.90;42.92;;;;;;;;;;5012739;28;98926;-70
2022/11/20 19:21:31;;;;;;;91.03;43.58;;;;;;;;;;5005915;28;99385;-69
2022/11/20 19:23:58;;;;;;;92.10;45.03;;;;;;;;;;5006135;28;98529;-70
2022/11/20 19:26:25;;;;;;;95.97;45.58;;;;;;;;;;5007458;28;100318;-69
2022/11/20 19:28:52;;;;;;;84.70;42.90;;;;;;;;;;5003403;28;98416;-69
2022/11/20 19:31:23;;;;;;;100.32;44.47;;;;;;;;;;5003183;28;99518;-69
2022/11/20 19:34:00;;;;;;;81.35;41.25;;;;;;;;;;5008744;28;98258;-70
2022/11/20 19:36:30;;;;;;;86.25;40.53;;;;;;;;;;5005668;28;98638;-70
2022/11/20 19:38:57;;;;;;;102.68;43.17;;;;;;;;;;5008639;28;98921;-69
2022/11/20 19:41:28;;;;;;;97.93;44.90;;;;;;;;;;5008221;28;98901;-70
2022/11/20 19:43:58;;;;;;;76.13;36.08;;;;;;;;;;5009027;28;99388;-69
2022/11/20 19:46:25;;;;;;;64.22;34.78;;;;;;;;;;5006433;28;99935;-69
2022/11/20 19:48:52;;;;;;;96.65;43.35;;;;;;;;;;5010935;28;98696;-69
2022/11/20 19:51:20;;;;;;;85.63;43.20;;;;;;;;;;5004330;28;99302;-69
2022/11/20 19:53:46;;;;;;;82.10;37.50;;;;;;;;;;5000649;28;99963;-69
2022/11/20 19:56:13;;;;;;;84.10;42.63;;;;;;;;;;5006381;28;99596;-69
2022/11/20 19:58:41;;;;;;;104.85;46.38;;;;;;;;;;5005837;28;100419;-70
2022/11/20 20:01:11;;;;;;;101.03;44.35;;;;;;;;;;5005827;28;98352;-69
2022/11/20 20:03:38;;;;;;;57.70;28.23;;;;;;;;;;5004999;28;98712;-69
2022/11/20 20:06:06;;;;;;;77.75;38.88;;;;;;;;;;5005668;28;99379;-69
2022/11/20 20:08:32;;;;;;;77.13;37.83;;;;;;;;;;5008423;28;100062;-69
2022/11/20 20:10:59;;;;;;;76.00;38.33;;;;;;;;;;5004881;28;99247;-69
2022/11/20 20:13:25;;;;;;;84.15;41.88;;;;;;;;;;5003723;28;98433;-69
2022/11/20 20:15:52;;;;;;;74.70;37.75;;;;;;;;;;5008011;28;98983;-70
2022/11/20 20:18:18;;;;;;;82.63;41.55;;;;;;;;;;5005711;28;99273;-69
2022/11/20 20:20:44;;;;;;;96.68;46.30;;;;;;;;;;5006364;28;99376;-69
2022/11/20 20:23:11;;;;;;;80.68;41.83;;;;;;;;;;5006960;28;99610;-69
2022/11/20 20:25:37;;;;;;;91.75;41.78;;;;;;;;;;5005258;28;100483;-69
2022/11/20 20:28:04;;;;;;;94.70;42.85;;;;;;;;;;5006852;28;98900;-69
2022/11/20 20:30:30;;;;;;;83.97;40.35;;;;;;;;;;5009410;28;99362;-69
2022/11/20 20:32:56;;;;;;;82.63;39.30;;;;;;;;;;5006840;28;98431;-69
2022/11/20 20:35:23;;;;;;;81.38;42.25;;;;;;;;;;5008631;28;99586;-69
2022/11/20 20:37:49;;;;;;;87.30;41.70;;;;;;;;;;5007350;28;99868;-69
2022/11/20 20:40:17;;;;;;;91.72;42.50;;;;;;;;;;5007867;28;98358;-69
2022/11/20 20:42:44;;;;;;;79.00;41.03;;;;;;;;;;5004648;28;101372;-69
2022/11/20 20:45:10;;;;;;;83.03;41.17;;;;;;;;;;5006693;28;99084;-69
2022/11/20 20:47:38;;;;;;;90.40;40.63;;;;;;;;;;5007083;28;98307;-69
2022/11/20 20:50:05;;;;;;;92.47;43.58;;;;;;;;;;5005523;28;99618;-69
2022/11/20 20:52:31;;;;;;;92.70;45.70;;;;;;;;;;5005757;28;99835;-69
2022/11/20 20:54:58;;;;;;;109.38;47.05;;;;;;;;;;5007271;28;99346;-69
2022/11/20 20:57:24;;;;;;;96.03;42.55;;;;;;;;;;4992570;28;99080;-68
2022/11/20 20:59:54;;;;;;;83.32;42.17;;;;;;;;;;5006215;28;98366;-68
2022/11/20 21:02:22;;;;;;;68.43;36.67;;;;;;;;;;5002216;28;98472;-69
2022/11/20 21:04:48;;;;;;;73.25;38.60;;;;;;;;;;5006629;28;99945;-69
2022/11/20 21:07:15;;;;;;;92.70;41.45;;;;;;;;;;5005496;28;99030;-69
2022/11/20 21:09:42;;;;;;;101.30;45.25;;;;;;;;;;5006587;28;98605;-69
2022/11/20 21:12:08;;;;;;;82.15;39.63;;;;;;;;;;5007612;28;100084;-69
2022/11/20 21:14:35;;;;;;;85.85;42.85;;;;;;;;;;5007878;28;98124;-69
2022/11/20 21:17:01;;;;;;;100.93;46.83;;;;;;;;;;5005889;28;101359;-69
2022/11/20 21:19:27;;;;;;;80.68;40.35;;;;;;;;;;5005591;28;98950;-69
2022/11/20 21:22:03;;;;;;;89.80;43.40;;;;;;;;;;5007536;28;99533;-69
2022/11/20 21:24:33;;;;;;;96.88;44.03;;;;;;;;;;5007558;28;100051;-69
2022/11/20 21:27:01;;;;;;;98.65;43.70;;;;;;;;;;5004095;28;100242;-69
2022/11/20 21:29:28;;;;;;;117.10;47.58;;;;;;;;;;4994557;28;100023;-69
2022/11/20 21:31:55;;;;;;;73.55;38.92;;;;;;;;;;4996667;28;100226;-69
2022/11/20 21:34:21;;;;;;;84.47;40.95;;;;;;;;;;4999152;28;99790;-70
2022/11/20 21:36:48;;;;;;;90.32;45.67;;;;;;;;;;5006765;28;99389;-70
2022/11/20 21:39:15;;;;;;;72.80;39.13;;;;;;;;;;5005965;28;98334;-69
2022/11/20 21:41:42;;;;;;;82.38;39.95;;;;;;;;;;4998716;28;99266;-69
2022/11/20 21:44:10;;;;;;;103.35;44.88;;;;;;;;;;5005432;28;100498;-69
2022/11/20 21:46:57;;;;;;;97.15;45.05;;;;;;;;;;5006768;28;98219;-69
2022/11/20 21:49:23;;;;;;;103.40;44.63;;;;;;;;;;5005693;28;100075;-70
2022/11/20 21:51:50;;;;;;;86.95;43.15;;;;;;;;;;5006423;28;100222;-69
2022/11/20 21:54:16;;;;;;;93.45;42.60;;;;;;;;;;5007773;28;99259;-68
2022/11/20 21:56:42;;;;;;;83.57;43.65;;;;;;;;;;5005631;28;99386;-69
2022/11/20 21:59:10;;;;;;;81.88;41.03;;;;;;;;;;5008041;28;98341;-69
2022/11/20 22:01:37;;;;;;;93.97;44.25;;;;;;;;;;5001960;28;99857;-69
2022/11/20 22:04:06;;;;;;;102.97;46.85;;;;;;;;;;5006330;28;100662;-70
2022/11/20 22:06:33;;;;;;;80.90;39.47;;;;;;;;;;5006707;28;98258;-70
2022/11/20 22:09:00;;;;;;;89.57;44.13;;;;;;;;;;5006589;28;99381;-68
2022/11/20 22:11:26;;;;;;;94.45;45.45;;;;;;;;;;5008735;28;99951;-68
2022/11/20 22:16:38;;;;;;;99.03;44.75;;;;;;;;;;5005993;28;98718;-69
2022/11/20 22:19:05;;;;;;;103.22;45.10;;;;;;;;;;5013205;28;100048;-69
2022/11/20 22:21:31;;;;;;;89.32;41.85;;;;;;;;;;5009167;28;99810;-69
2022/11/20 22:23:58;;;;;;;110.10;47.35;;;;;;;;;;5009453;28;100047;-69
2022/11/20 22:26:25;;;;;;;115.65;48.40;;;;;;;;;;5009319;28;98352;-69
2022/11/20 22:28:53;;;;;;;105.90;46.95;;;;;;;;;;5008175;28;99582;-70
2022/11/20 22:31:20;;;;;;;99.82;46.78;;;;;;;;;;5004618;28;99020;-69
2022/11/20 22:33:46;;;;;;;95.57;41.75;;;;;;;;;;5007811;28;98749;-69
2022/11/20 22:36:14;;;;;;;89.85;42.45;;;;;;;;;;5010382;28;99415;-69
2022/11/20 22:38:40;;;;;;;100.55;44.75;;;;;;;;;;5007473;28;99430;-69
2022/11/20 22:41:13;;;;;;;100.38;42.88;;;;;;;;;;5011630;28;99861;-69
2022/11/20 22:43:40;;;;;;;82.47;39.92;;;;;;;;;;5009660;28;100092;-69
2022/11/20 22:46:07;;;;;;;87.50;40.13;;;;;;;;;;5008935;28;98348;-69
2022/11/20 22:48:34;;;;;;;114.10;49.42;;;;;;;;;;5007569;28;99482;-69
2022/11/20 22:51:06;;;;;;;127.22;50.55;;;;;;;;;;5004258;28;99896;-69
2022/11/20 22:53:32;;;;;;;82.90;38.55;;;;;;;;;;4998894;28;98291;-69
2022/11/20 22:56:00;;;;;;;120.53;46.95;;;;;;;;;;5008547;28;99966;-69
2022/11/20 22:58:27;;;;;;;100.32;43.92;;;;;;;;;;5008453;28;99996;-69
2022/11/20 23:00:54;;;;;;;100.60;45.63;;;;;;;;;;5005590;28;98333;-69
2022/11/20 23:03:20;;;;;;;98.03;45.20;;;;;;;;;;5005228;28;99466;-69
2022/11/20 23:05:46;;;;;;;93.63;46.22;;;;;;;;;;5004097;28;99072;-69
2022/11/20 23:08:13;;;;;;;101.60;46.47;;;;;;;;;;5008732;28;98422;-69
2022/11/20 23:10:39;;;;;;;106.10;45.88;;;;;;;;;;5009167;28;100412;-68
2022/11/20 23:13:06;;;;;;;94.28;44.13;;;;;;;;;;5008903;28;98267;-68
2022/11/20 23:15:33;;;;;;;96.78;44.72;;;;;;;;;;4998559;28;100145;-69
2022/11/20 23:17:59;;;;;;;116.00;47.85;;;;;;;;;;4996920;28;99045;-68
2022/11/20 23:20:25;;;;;;;90.43;43.35;;;;;;;;;;4993629;28;98434;-69
2022/11/20 23:22:52;;;;;;;64.38;33.20;;;;;;;;;;5009823;28;99409;-68
2022/11/20 23:25:18;;;;;;;90.38;44.78;;;;;;;;;;5012337;28;98931;-68
2022/11/20 23:27:45;;;;;;;99.95;46.10;;;;;;;;;;5008251;28;98765;-69
2022/11/20 23:30:11;;;;;;;100.10;45.72;;;;;;;;;;5009079;28;98109;-69
2022/11/20 23:32:37;;;;;;;86.47;43.25;;;;;;;;;;5003657;28;98344;-69
2022/11/20 23:35:04;;;;;;;95.07;43.58;;;;;;;;;;5000086;28;98720;-68
2022/11/20 23:37:30;;;;;;;93.80;40.25;;;;;;;;;;5008198;28;99472;-69
2022/11/20 23:39:56;;;;;;;91.38;40.63;;;;;;;;;;5010153;28;98309;-68
2022/11/20 23:42:23;;;;;;;99.15;44.83;;;;;;;;;;5008242;28;99625;-70
2022/11/20 23:44:49;;;;;;;103.13;45.15;;;;;;;;;;5008445;28;99098;-68
2022/11/20 23:47:15;;;;;;;87.65;41.38;;;;;;;;;;5011853;28;98319;-69
2022/11/20 23:49:42;;;;;;;99.70;45.70;;;;;;;;;;5008408;28;100295;-69
2022/11/20 23:52:08;;;;;;;92.57;44.40;;;;;;;;;;5008086;28;98233;-68
2022/11/20 23:54:35;;;;;;;99.07;44.63;;;;;;;;;;5008191;28;99475;-69